sensor_id;sensor_type;location;lat;lon;timestamp;pressure;altitude;pressure_sealevel;temperature;humidity
64711;BME280;51139;45.626;6.850;2022-12-29T00:02:11;82070.84;;;-0.64;48.65
64711;BME280;51139;45.626;6.850;2022-12-29T00:04:37;82067.56;;;-0.39;46.88
64711;BME280;51139;45.626;6.850;2022-12-29T00:07:02;82066.34;;;-0.33;46.90
64711;BME280;51139;45.626;6.850;2022-12-29T00:09:30;82072.97;;;-0.32;48.07
64711;BME280;51139;45.626;6.850;2022-12-29T00:11:56;82069.09;;;-0.55;49.11
64711;BME280;51139;45.626;6.850;2022-12-29T00:14:22;82063.31;;;-1.04;50.84
64711;BME280;51139;45.626;6.850;2022-12-29T00:17:06;82063.97;;;-0.97;51.20
64711;BME280;51139;45.626;6.850;2022-12-29T00:19:31;82066.78;;;-0.28;49.21
64711;BME280;51139;45.626;6.850;2022-12-29T00:22:15;82072.44;;;-0.55;49.32
64711;BME280;51139;45.626;6.850;2022-12-29T00:24:59;82069.28;;;-0.78;50.12
64711;BME280;51139;45.626;6.850;2022-12-29T00:27:26;82061.41;;;-0.67;49.26
64711;BME280;51139;45.626;6.850;2022-12-29T00:30:12;82053.28;;;-0.88;50.24
64711;BME280;51139;45.626;6.850;2022-12-29T00:32:56;82064.53;;;-1.10;50.37
64711;BME280;51139;45.626;6.850;2022-12-29T00:35:46;82062.44;;;-1.18;50.54
64711;BME280;51139;45.626;6.850;2022-12-29T00:38:15;82071.38;;;-1.07;49.14
64711;BME280;51139;45.626;6.850;2022-12-29T00:40:59;82063.13;;;-1.11;50.37
64711;BME280;51139;45.626;6.850;2022-12-29T00:43:43;82056.47;;;-0.70;49.50
64711;BME280;51139;45.626;6.850;2022-12-29T00:46:27;82061.06;;;-0.52;49.43
64711;BME280;51139;45.626;6.850;2022-12-29T00:48:52;82071.16;;;-1.09;51.42
64711;BME280;51139;45.626;6.850;2022-12-29T00:51:36;82069.47;;;-1.07;50.95
64711;BME280;51139;45.626;6.850;2022-12-29T00:54:02;82069.06;;;-0.80;49.52
64711;BME280;51139;45.626;6.850;2022-12-29T00:56:27;82076.78;;;-0.69;48.28
64711;BME280;51139;45.626;6.850;2022-12-29T00:58:52;82071.78;;;-0.61;47.58
64711;BME280;51139;45.626;6.850;2022-12-29T01:01:18;82070.78;;;-0.89;48.61
64711;BME280;51139;45.626;6.850;2022-12-29T01:03:43;82058.75;;;-0.97;48.37
64711;BME280;51139;45.626;6.850;2022-12-29T01:06:10;82059.03;;;-1.01;48.52
64711;BME280;51139;45.626;6.850;2022-12-29T01:08:36;82058.81;;;-1.03;48.44
64711;BME280;51139;45.626;6.850;2022-12-29T01:11:04;82064.91;;;-0.95;48.06
64711;BME280;51139;45.626;6.850;2022-12-29T01:13:30;82067.47;;;-0.59;46.71
64711;BME280;51139;45.626;6.850;2022-12-29T01:15:56;82059.06;;;-1.07;48.41
64711;BME280;51139;45.626;6.850;2022-12-29T01:18:22;82053.47;;;-1.16;49.11
64711;BME280;51139;45.626;6.850;2022-12-29T01:20:48;82061.00;;;-1.13;49.24
64711;BME280;51139;45.626;6.850;2022-12-29T01:23:13;82049.81;;;-1.02;49.94
64711;BME280;51139;45.626;6.850;2022-12-29T01:25:39;82051.19;;;-0.95;49.67
64711;BME280;51139;45.626;6.850;2022-12-29T01:28:04;82044.78;;;-0.94;48.34
64711;BME280;51139;45.626;6.850;2022-12-29T01:30:29;82054.06;;;-0.99;48.62
64711;BME280;51139;45.626;6.850;2022-12-29T01:32:55;82052.31;;;-0.85;47.29
64711;BME280;51139;45.626;6.850;2022-12-29T01:35:20;82046.72;;;-0.34;45.14
64711;BME280;51139;45.626;6.850;2022-12-29T01:37:46;82037.81;;;0.06;44.57
64711;BME280;51139;45.626;6.850;2022-12-29T01:40:12;82041.19;;;-0.24;46.29
64711;BME280;51139;45.626;6.850;2022-12-29T01:42:37;82040.03;;;-0.29;45.49
64711;BME280;51139;45.626;6.850;2022-12-29T01:45:09;82045.63;;;-0.44;46.72
64711;BME280;51139;45.626;6.850;2022-12-29T01:47:54;82037.09;;;-0.45;46.77
64711;BME280;51139;45.626;6.850;2022-12-29T01:50:35;82039.34;;;-0.91;47.85
64711;BME280;51139;45.626;6.850;2022-12-29T01:53:04;82042.38;;;-0.86;47.69
64711;BME280;51139;45.626;6.850;2022-12-29T01:55:34;82048.13;;;-0.63;47.80
64711;BME280;51139;45.626;6.850;2022-12-29T01:58:03;82046.53;;;-0.72;47.31
64711;BME280;51139;45.626;6.850;2022-12-29T02:00:30;82039.38;;;-0.96;47.90
64711;BME280;51139;45.626;6.850;2022-12-29T02:02:55;82039.16;;;-0.98;48.21
64711;BME280;51139;45.626;6.850;2022-12-29T02:05:33;82039.78;;;-0.56;45.49
64711;BME280;51139;45.626;6.850;2022-12-29T02:08:01;82036.63;;;-0.74;47.76
64711;BME280;51139;45.626;6.850;2022-12-29T02:10:29;82037.16;;;-0.81;48.72
64711;BME280;51139;45.626;6.850;2022-12-29T02:12:56;82034.56;;;-0.81;48.67
64711;BME280;51139;45.626;6.850;2022-12-29T02:32:18;82015.50;;;-0.64;46.41
64711;BME280;51139;45.626;6.850;2022-12-29T02:34:54;82012.28;;;-0.76;47.26
64711;BME280;51139;45.626;6.850;2022-12-29T02:37:26;82008.47;;;-0.75;46.98
64711;BME280;51139;45.626;6.850;2022-12-29T02:40:07;82016.06;;;-0.47;46.62
64711;BME280;51139;45.626;6.850;2022-12-29T02:42:47;82009.19;;;-0.44;45.43
64711;BME280;51139;45.626;6.850;2022-12-29T02:47:54;81995.72;;;-0.48;45.86
64711;BME280;51139;45.626;6.850;2022-12-29T02:52:59;81995.41;;;-0.39;45.19
64711;BME280;51139;45.626;6.850;2022-12-29T02:55:25;81996.09;;;-0.38;45.01
64711;BME280;51139;45.626;6.850;2022-12-29T02:58:15;81995.03;;;-0.49;44.72
64711;BME280;51139;45.626;6.850;2022-12-29T03:15:34;81981.06;;;-0.51;45.36
64711;BME280;51139;45.626;6.850;2022-12-29T03:18:25;81982.91;;;-0.46;45.15
64711;BME280;51139;45.626;6.850;2022-12-29T03:21:00;81981.06;;;-0.51;45.77
64711;BME280;51139;45.626;6.850;2022-12-29T03:23:29;81974.97;;;-0.54;45.83
64711;BME280;51139;45.626;6.850;2022-12-29T03:25:57;81972.41;;;-0.60;46.42
64711;BME280;51139;45.626;6.850;2022-12-29T03:28:28;81977.34;;;-0.56;46.54
64711;BME280;51139;45.626;6.850;2022-12-29T03:30:57;81976.16;;;-0.55;46.03
64711;BME280;51139;45.626;6.850;2022-12-29T03:33:25;81969.88;;;-0.65;46.70
64711;BME280;51139;45.626;6.850;2022-12-29T03:35:58;81977.06;;;-0.52;46.45
64711;BME280;51139;45.626;6.850;2022-12-29T03:38:33;81979.19;;;-0.51;45.97
64711;BME280;51139;45.626;6.850;2022-12-29T03:41:03;81976.81;;;-0.49;46.42
64711;BME280;51139;45.626;6.850;2022-12-29T03:43:30;81975.06;;;-0.40;46.44
64711;BME280;51139;45.626;6.850;2022-12-29T03:45:56;81973.75;;;-0.28;46.11
64711;BME280;51139;45.626;6.850;2022-12-29T03:48:21;81979.38;;;-0.24;46.16
64711;BME280;51139;45.626;6.850;2022-12-29T03:50:47;81977.75;;;-0.27;46.63
64711;BME280;51139;45.626;6.850;2022-12-29T03:53:12;81978.41;;;-0.21;47.33
64711;BME280;51139;45.626;6.850;2022-12-29T03:55:37;81977.38;;;-0.12;47.00
64711;BME280;51139;45.626;6.850;2022-12-29T03:58:03;81964.72;;;-0.02;46.74
64711;BME280;51139;45.626;6.850;2022-12-29T04:00:28;81968.38;;;-0.11;47.61
64711;BME280;51139;45.626;6.850;2022-12-29T04:02:54;81960.22;;;-0.02;48.84
64711;BME280;51139;45.626;6.850;2022-12-29T04:05:20;81955.31;;;0.14;47.88
64711;BME280;51139;45.626;6.850;2022-12-29T04:07:45;81955.09;;;0.12;47.93
64711;BME280;51139;45.626;6.850;2022-12-29T04:10:11;81959.53;;;0.17;46.78
64711;BME280;51139;45.626;6.850;2022-12-29T04:12:36;81955.38;;;0.27;47.60
64711;BME280;51139;45.626;6.850;2022-12-29T04:15:02;81953.34;;;0.39;46.54
64711;BME280;51139;45.626;6.850;2022-12-29T04:17:28;81958.72;;;0.47;46.13
64711;BME280;51139;45.626;6.850;2022-12-29T04:19:53;81951.56;;;0.48;46.61
64711;BME280;51139;45.626;6.850;2022-12-29T04:22:38;81951.56;;;0.48;46.49
64711;BME280;51139;45.626;6.850;2022-12-29T04:25:04;81955.38;;;0.47;46.62
64711;BME280;51139;45.626;6.850;2022-12-29T04:27:29;81947.50;;;0.52;46.44
64711;BME280;51139;45.626;6.850;2022-12-29T04:29:55;81940.53;;;0.61;45.29
64711;BME280;51139;45.626;6.850;2022-12-29T04:32:20;81939.88;;;0.54;45.77
64711;BME280;51139;45.626;6.850;2022-12-29T04:34:45;81934.09;;;0.62;44.99
64711;BME280;51139;45.626;6.850;2022-12-29T04:37:11;81947.25;;;0.69;45.64
64711;BME280;51139;45.626;6.850;2022-12-29T04:39:36;81940.94;;;0.65;45.42
64711;BME280;51139;45.626;6.850;2022-12-29T04:42:01;81940.97;;;0.78;44.97
64711;BME280;51139;45.626;6.850;2022-12-29T04:44:27;81949.09;;;1.07;43.31
64711;BME280;51139;45.626;6.850;2022-12-29T04:46:52;81955.31;;;1.04;43.76
64711;BME280;51139;45.626;6.850;2022-12-29T04:49:17;81956.50;;;1.03;43.61
64711;BME280;51139;45.626;6.850;2022-12-29T04:51:43;81962.13;;;1.07;44.76
64711;BME280;51139;45.626;6.850;2022-12-29T04:54:08;81961.28;;;1.18;44.38
64711;BME280;51139;45.626;6.850;2022-12-29T04:56:34;81958.34;;;1.22;44.02
64711;BME280;51139;45.626;6.850;2022-12-29T04:58:59;81951.91;;;1.09;44.63
64711;BME280;51139;45.626;6.850;2022-12-29T05:01:24;81953.78;;;0.95;46.59
64711;BME280;51139;45.626;6.850;2022-12-29T05:03:50;81950.84;;;0.85;47.62
64711;BME280;51139;45.626;6.850;2022-12-29T05:06:17;81951.81;;;0.82;47.67
64711;BME280;51139;45.626;6.850;2022-12-29T05:08:42;81956.47;;;0.90;47.47
64711;BME280;51139;45.626;6.850;2022-12-29T05:11:07;81948.38;;;0.93;47.61
64711;BME280;51139;45.626;6.850;2022-12-29T05:13:33;81957.28;;;0.98;47.13
64711;BME280;51139;45.626;6.850;2022-12-29T05:15:58;81949.78;;;0.94;47.58
64711;BME280;51139;45.626;6.850;2022-12-29T05:18:23;81950.25;;;0.93;47.75
64711;BME280;51139;45.626;6.850;2022-12-29T05:20:49;81959.56;;;0.88;47.00
64711;BME280;51139;45.626;6.850;2022-12-29T05:23:15;81955.22;;;0.77;48.47
64711;BME280;51139;45.626;6.850;2022-12-29T05:25:40;81960.66;;;0.79;47.82
64711;BME280;51139;45.626;6.850;2022-12-29T05:28:06;81963.91;;;0.99;47.38
64711;BME280;51139;45.626;6.850;2022-12-29T05:30:31;81967.16;;;1.05;46.63
64711;BME280;51139;45.626;6.850;2022-12-29T05:32:57;81965.16;;;1.11;45.16
64711;BME280;51139;45.626;6.850;2022-12-29T05:35:22;81963.69;;;1.16;46.39
64711;BME280;51139;45.626;6.850;2022-12-29T05:37:47;81957.22;;;1.04;47.76
64711;BME280;51139;45.626;6.850;2022-12-29T05:40:13;81956.94;;;0.88;49.14
64711;BME280;51139;45.626;6.850;2022-12-29T05:42:38;81963.88;;;0.85;49.51
64711;BME280;51139;45.626;6.850;2022-12-29T05:45:04;81977.13;;;0.87;49.30
64711;BME280;51139;45.626;6.850;2022-12-29T05:47:32;81983.53;;;0.86;49.79
64711;BME280;51139;45.626;6.850;2022-12-29T05:49:57;81976.19;;;0.85;49.65
64711;BME280;51139;45.626;6.850;2022-12-29T05:52:23;81974.59;;;0.82;49.99
64711;BME280;51139;45.626;6.850;2022-12-29T05:54:48;81980.00;;;0.84;51.15
64711;BME280;51139;45.626;6.850;2022-12-29T05:57:13;81976.50;;;0.81;51.10
64711;BME280;51139;45.626;6.850;2022-12-29T05:59:39;81969.72;;;0.92;51.34
64711;BME280;51139;45.626;6.850;2022-12-29T06:02:04;81977.38;;;1.03;51.23
64711;BME280;51139;45.626;6.850;2022-12-29T06:04:30;81975.28;;;1.01;51.73
64711;BME280;51139;45.626;6.850;2022-12-29T06:06:55;81975.94;;;1.21;50.60
64711;BME280;51139;45.626;6.850;2022-12-29T06:09:20;81970.25;;;1.36;50.82
64711;BME280;51139;45.626;6.850;2022-12-29T06:11:46;81968.56;;;1.52;50.78
64711;BME280;51139;45.626;6.850;2022-12-29T06:14:11;81970.69;;;1.54;49.98
64711;BME280;51139;45.626;6.850;2022-12-29T06:16:36;81973.00;;;1.71;50.02
64711;BME280;51139;45.626;6.850;2022-12-29T06:19:02;81972.00;;;1.74;50.40
64711;BME280;51139;45.626;6.850;2022-12-29T06:21:27;81975.94;;;1.67;51.11
64711;BME280;51139;45.626;6.850;2022-12-29T06:23:53;81971.31;;;1.73;50.61
64711;BME280;51139;45.626;6.850;2022-12-29T06:26:18;81964.09;;;1.80;50.89
64711;BME280;51139;45.626;6.850;2022-12-29T06:28:44;81966.59;;;1.85;50.70
64711;BME280;51139;45.626;6.850;2022-12-29T06:31:10;81970.78;;;1.62;51.80
64711;BME280;51139;45.626;6.850;2022-12-29T06:33:36;81965.56;;;1.62;48.08
64711;BME280;51139;45.626;6.850;2022-12-29T06:36:02;81966.97;;;1.63;49.11
64711;BME280;51139;45.626;6.850;2022-12-29T06:38:27;81966.28;;;1.62;49.30
64711;BME280;51139;45.626;6.850;2022-12-29T06:40:53;81973.91;;;1.60;51.79
64711;BME280;51139;45.626;6.850;2022-12-29T06:43:18;81963.16;;;1.64;49.38
64711;BME280;51139;45.626;6.850;2022-12-29T06:45:43;81970.59;;;1.59;48.35
64711;BME280;51139;45.626;6.850;2022-12-29T06:48:09;81963.13;;;1.50;48.63
64711;BME280;51139;45.626;6.850;2022-12-29T06:50:34;81960.16;;;1.73;47.19
64711;BME280;51139;45.626;6.850;2022-12-29T06:53:00;81953.84;;;1.95;47.13
64711;BME280;51139;45.626;6.850;2022-12-29T06:55:25;81952.22;;;2.06;46.75
64711;BME280;51139;45.626;6.850;2022-12-29T06:57:54;81957.56;;;1.86;46.21
64711;BME280;51139;45.626;6.850;2022-12-29T07:00:20;81954.72;;;1.57;50.29
64711;BME280;51139;45.626;6.850;2022-12-29T07:02:45;81962.25;;;1.48;50.37
64711;BME280;51139;45.626;6.850;2022-12-29T07:05:11;81962.38;;;1.82;48.20
64711;BME280;51139;45.626;6.850;2022-12-29T07:07:36;81964.06;;;1.66;49.37
64711;BME280;51139;45.626;6.850;2022-12-29T07:10:02;81973.09;;;1.52;51.32
64711;BME280;51139;45.626;6.850;2022-12-29T07:12:27;81965.88;;;1.58;49.66
64711;BME280;51139;45.626;6.850;2022-12-29T07:14:53;81979.38;;;1.43;51.12
64711;BME280;51139;45.626;6.850;2022-12-29T07:17:18;81983.38;;;1.30;53.37
64711;BME280;51139;45.626;6.850;2022-12-29T07:19:43;81986.00;;;1.30;52.83
64711;BME280;51139;45.626;6.850;2022-12-29T07:22:09;81981.97;;;1.29;52.80
64711;BME280;51139;45.626;6.850;2022-12-29T07:24:35;81992.00;;;1.25;52.40
64711;BME280;51139;45.626;6.850;2022-12-29T07:27:00;81990.94;;;1.34;52.42
64711;BME280;51139;45.626;6.850;2022-12-29T07:29:26;81992.34;;;1.35;52.88
64711;BME280;51139;45.626;6.850;2022-12-29T07:31:51;81995.09;;;1.24;52.72
64711;BME280;51139;45.626;6.850;2022-12-29T07:34:16;82004.25;;;1.30;53.02
64711;BME280;51139;45.626;6.850;2022-12-29T07:36:42;82011.84;;;1.48;52.48
64711;BME280;51139;45.626;6.850;2022-12-29T07:39:07;82006.66;;;1.74;52.04
64711;BME280;51139;45.626;6.850;2022-12-29T07:41:32;82015.31;;;1.69;51.82
64711;BME280;51139;45.626;6.850;2022-12-29T07:43:58;82006.53;;;1.67;51.47
64711;BME280;51139;45.626;6.850;2022-12-29T07:46:23;82010.72;;;1.43;52.15
64711;BME280;51139;45.626;6.850;2022-12-29T07:48:49;82017.03;;;1.34;52.55
64711;BME280;51139;45.626;6.850;2022-12-29T07:51:14;82014.97;;;1.27;53.78
64711;BME280;51139;45.626;6.850;2022-12-29T07:53:39;82014.78;;;1.25;53.94
64711;BME280;51139;45.626;6.850;2022-12-29T07:56:05;82021.31;;;1.31;53.65
64711;BME280;51139;45.626;6.850;2022-12-29T07:58:31;82014.66;;;1.50;51.38
64711;BME280;51139;45.626;6.850;2022-12-29T08:00:56;82017.66;;;1.40;51.94
64711;BME280;51139;45.626;6.850;2022-12-29T08:03:23;82009.19;;;1.34;53.13
64711;BME280;51139;45.626;6.850;2022-12-29T08:05:49;82021.78;;;1.16;52.84
64711;BME280;51139;45.626;6.850;2022-12-29T08:08:15;82021.28;;;1.18;51.47
64711;BME280;51139;45.626;6.850;2022-12-29T08:10:40;82012.53;;;1.15;52.03
64711;BME280;51139;45.626;6.850;2022-12-29T08:13:06;82013.31;;;1.10;52.69
64711;BME280;51139;45.626;6.850;2022-12-29T08:15:32;82005.59;;;1.37;51.65
64711;BME280;51139;45.626;6.850;2022-12-29T08:17:57;82019.09;;;1.55;49.40
64711;BME280;51139;45.626;6.850;2022-12-29T08:20:22;82029.75;;;1.70;48.44
64711;BME280;51139;45.626;6.850;2022-12-29T08:22:50;82022.94;;;1.67;48.78
64711;BME280;51139;45.626;6.850;2022-12-29T08:25:16;82030.34;;;1.63;47.24
64711;BME280;51139;45.626;6.850;2022-12-29T08:27:41;82022.53;;;1.63;44.33
64711;BME280;51139;45.626;6.850;2022-12-29T08:30:08;82029.81;;;1.51;44.03
64711;BME280;51139;45.626;6.850;2022-12-29T08:32:33;82037.06;;;1.58;45.10
64711;BME280;51139;45.626;6.850;2022-12-29T08:34:59;82032.56;;;1.59;45.72
64711;BME280;51139;45.626;6.850;2022-12-29T08:37:25;82032.75;;;1.61;45.08
64711;BME280;51139;45.626;6.850;2022-12-29T08:39:51;82040.63;;;1.74;45.62
64711;BME280;51139;45.626;6.850;2022-12-29T08:42:16;82045.41;;;2.03;45.30
64711;BME280;51139;45.626;6.850;2022-12-29T08:44:41;82039.22;;;1.87;45.62
64711;BME280;51139;45.626;6.850;2022-12-29T08:47:09;82047.88;;;1.82;47.17
64711;BME280;51139;45.626;6.850;2022-12-29T08:49:35;82050.69;;;1.84;47.75
64711;BME280;51139;45.626;6.850;2022-12-29T08:52:01;82050.06;;;1.78;49.43
64711;BME280;51139;45.626;6.850;2022-12-29T08:54:26;82056.63;;;1.84;50.24
64711;BME280;51139;45.626;6.850;2022-12-29T08:56:52;82062.34;;;1.83;49.99
64711;BME280;51139;45.626;6.850;2022-12-29T08:59:18;82055.66;;;2.01;48.96
64711;BME280;51139;45.626;6.850;2022-12-29T09:01:44;82070.00;;;2.08;49.96
64711;BME280;51139;45.626;6.850;2022-12-29T09:04:09;82068.19;;;2.02;50.00
64711;BME280;51139;45.626;6.850;2022-12-29T09:06:35;82071.81;;;2.13;50.21
64711;BME280;51139;45.626;6.850;2022-12-29T09:09:00;82070.25;;;2.23;50.33
64711;BME280;51139;45.626;6.850;2022-12-29T09:11:26;82070.19;;;1.96;50.98
64711;BME280;51139;45.626;6.850;2022-12-29T09:13:52;82070.22;;;2.10;51.56
64711;BME280;51139;45.626;6.850;2022-12-29T09:16:20;82065.69;;;2.10;52.03
64711;BME280;51139;45.626;6.850;2022-12-29T09:18:45;82071.06;;;2.31;51.62
64711;BME280;51139;45.626;6.850;2022-12-29T09:21:12;82070.84;;;2.29;51.51
64711;BME280;51139;45.626;6.850;2022-12-29T09:23:38;82076.06;;;2.16;51.36
64711;BME280;51139;45.626;6.850;2022-12-29T09:26:04;82067.84;;;2.25;51.51
64711;BME280;51139;45.626;6.850;2022-12-29T09:28:30;82065.22;;;2.25;51.88
64711;BME280;51139;45.626;6.850;2022-12-29T09:30:57;82066.72;;;2.07;52.40
64711;BME280;51139;45.626;6.850;2022-12-29T09:33:22;82065.38;;;2.00;51.96
64711;BME280;51139;45.626;6.850;2022-12-29T09:35:55;82068.78;;;1.95;53.05
64711;BME280;51139;45.626;6.850;2022-12-29T09:38:22;82067.06;;;1.84;51.11
64711;BME280;51139;45.626;6.850;2022-12-29T09:40:56;82070.81;;;2.02;45.94
64711;BME280;51139;45.626;6.850;2022-12-29T09:48:47;82045.91;;;2.55;45.66
64711;BME280;51139;45.626;6.850;2022-12-29T09:51:21;82046.13;;;2.57;45.40
64711;BME280;51139;45.626;6.850;2022-12-29T09:54:01;82048.22;;;2.72;45.75
64711;BME280;51139;45.626;6.850;2022-12-29T09:56:28;82042.09;;;2.70;44.97
64711;BME280;51139;45.626;6.850;2022-12-29T09:59:12;82053.69;;;1.42;45.37
64711;BME280;51139;45.626;6.850;2022-12-29T10:01:49;82051.00;;;1.48;44.00
64711;BME280;51139;45.626;6.850;2022-12-29T10:04:17;82052.13;;;1.66;44.66
64711;BME280;51139;45.626;6.850;2022-12-29T10:06:51;82055.47;;;1.66;43.41
64711;BME280;51139;45.626;6.850;2022-12-29T10:11:53;82055.97;;;2.24;43.51
64711;BME280;51139;45.626;6.850;2022-12-29T10:24:38;82053.13;;;2.76;43.68
64711;BME280;51139;45.626;6.850;2022-12-29T10:27:07;82053.63;;;3.01;43.25
64711;BME280;51139;45.626;6.850;2022-12-29T10:29:40;82045.84;;;3.09;43.15
64711;BME280;51139;45.626;6.850;2022-12-29T10:32:29;82047.44;;;3.26;44.55
64711;BME280;51139;45.626;6.850;2022-12-29T10:35:03;82046.84;;;3.19;45.46
64711;BME280;51139;45.626;6.850;2022-12-29T10:42:46;82036.97;;;2.37;45.36
64711;BME280;51139;45.626;6.850;2022-12-29T10:45:16;82043.91;;;2.21;45.81
64711;BME280;51139;45.626;6.850;2022-12-29T10:47:55;82037.38;;;2.41;46.92
64711;BME280;51139;45.626;6.850;2022-12-29T10:50:23;82037.38;;;2.28;45.59
64711;BME280;51139;45.626;6.850;2022-12-29T10:52:49;82032.66;;;2.53;46.78
64711;BME280;51139;45.626;6.850;2022-12-29T10:55:21;82026.28;;;2.48;45.99
64711;BME280;51139;45.626;6.850;2022-12-29T10:57:48;82016.25;;;2.53;48.64
64711;BME280;51139;45.626;6.850;2022-12-29T11:00:17;82026.28;;;2.75;47.08
64711;BME280;51139;45.626;6.850;2022-12-29T11:08:27;82012.44;;;3.02;47.10
64711;BME280;51139;45.626;6.850;2022-12-29T11:11:05;82011.59;;;2.72;47.96
64711;BME280;51139;45.626;6.850;2022-12-29T11:13:46;82017.25;;;2.36;48.06
64711;BME280;51139;45.626;6.850;2022-12-29T11:16:13;82009.31;;;2.55;47.88
64711;BME280;51139;45.626;6.850;2022-12-29T11:18:40;82004.56;;;2.67;48.83
64711;BME280;51139;45.626;6.850;2022-12-29T11:24:14;82009.81;;;3.15;48.25
64711;BME280;51139;45.626;6.850;2022-12-29T11:26:44;82007.59;;;3.06;49.70
64711;BME280;51139;45.626;6.850;2022-12-29T11:31:42;81999.97;;;3.29;47.24
64711;BME280;51139;45.626;6.850;2022-12-29T11:34:08;82001.19;;;3.28;48.45
64711;BME280;51139;45.626;6.850;2022-12-29T11:36:34;82008.28;;;3.41;48.29
64711;BME280;51139;45.626;6.850;2022-12-29T11:39:00;81995.06;;;3.47;48.33
64711;BME280;51139;45.626;6.850;2022-12-29T11:41:31;81990.09;;;3.57;48.89
64711;BME280;51139;45.626;6.850;2022-12-29T11:44:02;81981.22;;;3.60;48.19
64711;BME280;51139;45.626;6.850;2022-12-29T11:46:35;81976.63;;;3.53;47.79
64711;BME280;51139;45.626;6.850;2022-12-29T11:49:02;81973.25;;;3.65;47.80
64711;BME280;51139;45.626;6.850;2022-12-29T11:51:37;81966.41;;;3.62;48.09
64711;BME280;51139;45.626;6.850;2022-12-29T11:54:04;81965.44;;;3.73;47.08
64711;BME280;51139;45.626;6.850;2022-12-29T11:56:36;81954.44;;;3.54;47.69
64711;BME280;51139;45.626;6.850;2022-12-29T11:59:34;81949.72;;;3.31;47.76
64711;BME280;51139;45.626;6.850;2022-12-29T12:07:47;81925.25;;;3.49;47.17
64711;BME280;51139;45.626;6.850;2022-12-29T12:10:27;81917.50;;;3.86;47.64
64711;BME280;51139;45.626;6.850;2022-12-29T12:13:01;81921.22;;;3.06;47.95
64711;BME280;51139;45.626;6.850;2022-12-29T12:15:40;81912.84;;;3.50;50.29
64711;BME280;51139;45.626;6.850;2022-12-29T12:18:16;81900.38;;;3.35;48.25
64711;BME280;51139;45.626;6.850;2022-12-29T12:23:38;81886.50;;;3.27;47.76
64711;BME280;51139;45.626;6.850;2022-12-29T12:26:19;81876.94;;;3.08;46.79
64711;BME280;51139;45.626;6.850;2022-12-29T12:28:52;81869.38;;;3.47;47.12
64711;BME280;51139;45.626;6.850;2022-12-29T12:31:33;81868.38;;;3.87;46.08
64711;BME280;51139;45.626;6.850;2022-12-29T12:34:06;81869.97;;;3.90;47.44
64711;BME280;51139;45.626;6.850;2022-12-29T12:50:26;81843.81;;;3.40;46.66
64711;BME280;51139;45.626;6.850;2022-12-29T12:58:39;81848.63;;;3.86;48.07
64711;BME280;51139;45.626;6.850;2022-12-29T13:09:32;81833.13;;;3.59;47.25
64711;BME280;51139;45.626;6.850;2022-12-29T13:19:54;81826.19;;;3.98;47.87
64711;BME280;51139;45.626;6.850;2022-12-29T13:25:19;81822.53;;;3.64;47.63
64711;BME280;51139;45.626;6.850;2022-12-29T13:27:58;81823.69;;;3.56;48.54
64711;BME280;51139;45.626;6.850;2022-12-29T13:30:50;81822.91;;;4.05;48.68
64711;BME280;51139;45.626;6.850;2022-12-29T13:36:54;81809.44;;;4.09;48.37
64711;BME280;51139;45.626;6.850;2022-12-29T13:39:30;81817.91;;;4.23;48.59
64711;BME280;51139;45.626;6.850;2022-12-29T13:41:58;81811.44;;;4.32;48.80
64711;BME280;51139;45.626;6.850;2022-12-29T13:44:30;81813.41;;;4.47;49.40
64711;BME280;51139;45.626;6.850;2022-12-29T13:46:59;81813.16;;;4.21;48.61
64711;BME280;51139;45.626;6.850;2022-12-29T13:49:27;81817.50;;;4.11;49.64
64711;BME280;51139;45.626;6.850;2022-12-29T13:52:02;81811.97;;;4.30;49.54
64711;BME280;51139;45.626;6.850;2022-12-29T13:54:40;81817.41;;;4.40;50.24
64711;BME280;51139;45.626;6.850;2022-12-29T13:59:49;81815.00;;;3.98;49.84
64711;BME280;51139;45.626;6.850;2022-12-29T14:02:31;81810.47;;;3.98;49.62
64711;BME280;51139;45.626;6.850;2022-12-29T14:05:05;81809.88;;;3.92;49.83
64711;BME280;51139;45.626;6.850;2022-12-29T14:08:00;81811.69;;;4.05;49.83
64711;BME280;51139;45.626;6.850;2022-12-29T14:10:36;81819.00;;;3.62;50.76
64711;BME280;51139;45.626;6.850;2022-12-29T14:13:12;81821.78;;;3.56;50.06
64711;BME280;51139;45.626;6.850;2022-12-29T14:15:39;81823.16;;;3.86;50.49
64711;BME280;51139;45.626;6.850;2022-12-29T14:18:18;81821.06;;;3.56;51.85
64711;BME280;51139;45.626;6.850;2022-12-29T14:23:38;81823.44;;;3.46;50.71
64711;BME280;51139;45.626;6.850;2022-12-29T14:28:46;81824.13;;;3.75;51.20
64711;BME280;51139;45.626;6.850;2022-12-29T14:36:52;81816.81;;;3.45;50.85
64711;BME280;51139;45.626;6.850;2022-12-29T14:39:39;81809.22;;;3.33;51.36
64711;BME280;51139;45.626;6.850;2022-12-29T14:45:22;81816.91;;;3.31;53.21
64711;BME280;51139;45.626;6.850;2022-12-29T14:47:51;81817.03;;;3.55;54.81
64711;BME280;51139;45.626;6.850;2022-12-29T14:58:03;81826.13;;;3.54;52.01
64711;BME280;51139;45.626;6.850;2022-12-29T15:00:33;81821.56;;;3.25;52.60
64711;BME280;51139;45.626;6.850;2022-12-29T15:06:13;81808.94;;;3.16;52.50
64711;BME280;51139;45.626;6.850;2022-12-29T15:08:51;81798.34;;;3.21;53.31
64711;BME280;51139;45.626;6.850;2022-12-29T15:11:23;81795.66;;;3.14;52.77
64711;BME280;51139;45.626;6.850;2022-12-29T15:13:49;81808.16;;;3.29;52.49
64711;BME280;51139;45.626;6.850;2022-12-29T15:16:34;81807.47;;;3.07;53.10
64711;BME280;51139;45.626;6.850;2022-12-29T15:19:02;81805.44;;;3.13;52.77
64711;BME280;51139;45.626;6.850;2022-12-29T15:21:33;81798.91;;;3.28;53.80
64711;BME280;51139;45.626;6.850;2022-12-29T15:24:00;81803.34;;;3.41;53.41
64711;BME280;51139;45.626;6.850;2022-12-29T15:26:44;81803.31;;;3.33;54.35
64711;BME280;51139;45.626;6.850;2022-12-29T15:32:15;81801.25;;;3.10;57.46
64711;BME280;51139;45.626;6.850;2022-12-29T15:34:42;81805.75;;;3.10;59.17
64711;BME280;51139;45.626;6.850;2022-12-29T15:37:08;81797.19;;;3.09;58.37
64711;BME280;51139;45.626;6.850;2022-12-29T15:39:35;81802.88;;;3.00;59.13
64711;BME280;51139;45.626;6.850;2022-12-29T15:42:27;81803.53;;;2.92;60.65
64711;BME280;51139;45.626;6.850;2022-12-29T15:44:56;81798.22;;;3.06;60.47
64711;BME280;51139;45.626;6.850;2022-12-29T15:47:24;81806.50;;;3.18;59.31
64711;BME280;51139;45.626;6.850;2022-12-29T15:49:53;81806.75;;;3.28;58.68
64711;BME280;51139;45.626;6.850;2022-12-29T15:52:24;81799.59;;;3.28;57.28